createdAt,value
2023-03-16T00:00:47.209Z,99.90
2023-03-16T00:03:35.008Z,99.90
2023-03-16T00:06:24.516Z,99.90
2023-03-16T00:09:12.482Z,99.90
2023-03-16T00:11:59.363Z,99.90
2023-03-16T00:14:46.171Z,99.90
2023-03-16T00:17:33.123Z,99.90
2023-03-16T00:20:19.928Z,99.90
2023-03-16T00:23:06.723Z,99.90
2023-03-16T00:25:53.446Z,99.90
2023-03-16T00:28:40.325Z,99.90
2023-03-16T00:31:26.991Z,99.90
2023-03-16T00:34:15.366Z,99.90
2023-03-16T00:37:02.005Z,99.90
2023-03-16T00:39:48.717Z,99.90
2023-03-16T00:42:35.286Z,99.90
2023-03-16T00:45:22.156Z,99.90
2023-03-16T00:48:09.127Z,99.90
2023-03-16T00:50:55.837Z,99.90
2023-03-16T00:53:42.558Z,99.90
2023-03-16T00:56:29.272Z,99.90
2023-03-16T00:59:15.905Z,99.90
2023-03-16T01:02:04.396Z,99.90
2023-03-16T01:04:51.275Z,99.90
2023-03-16T01:07:37.917Z,99.90
2023-03-16T01:10:24.548Z,99.90
2023-03-16T01:13:11.116Z,99.90
2023-03-16T01:15:57.916Z,99.90
2023-03-16T01:18:44.652Z,99.90
2023-03-16T01:21:31.277Z,99.90
2023-03-16T01:24:17.998Z,99.90
2023-03-16T01:27:04.903Z,99.90
2023-03-16T01:29:51.677Z,99.90
2023-03-16T01:32:38.665Z,99.90
2023-03-16T01:35:25.369Z,99.90
2023-03-16T01:38:13.760Z,99.90
2023-03-16T01:41:00.636Z,99.90
2023-03-16T01:43:47.454Z,99.90
2023-03-16T01:46:34.112Z,99.90
2023-03-16T01:49:21.841Z,99.90
2023-03-16T01:52:08.483Z,99.90
2023-03-16T01:54:55.356Z,99.90
2023-03-16T01:57:42.076Z,99.90
2023-03-16T02:00:28.882Z,99.90
2023-03-16T02:03:19.117Z,99.90
2023-03-16T02:06:06.090Z,99.90
2023-03-16T02:08:53.277Z,99.90
2023-03-16T02:11:39.918Z,99.90
2023-03-16T02:14:26.552Z,99.90
2023-03-16T02:17:13.122Z,99.90
2023-03-16T02:19:59.843Z,99.90
2023-03-16T02:22:46.805Z,99.90
2023-03-16T02:25:33.475Z,99.90
2023-03-16T02:28:20.254Z,99.90
2023-03-16T02:31:11.992Z,99.90
2023-03-16T02:33:58.800Z,99.90
2023-03-16T02:36:45.678Z,99.90
2023-03-16T02:39:32.479Z,99.90
2023-03-16T02:42:19.209Z,99.90
2023-03-16T02:45:05.911Z,99.90
2023-03-16T02:47:52.562Z,99.90
2023-03-16T02:50:39.363Z,99.90
2023-03-16T02:53:25.921Z,99.90
2023-03-16T02:56:12.646Z,99.90
2023-03-16T02:58:59.277Z,99.90
2023-03-16T03:01:45.919Z,99.90
2023-03-16T03:04:32.628Z,99.90
2023-03-16T03:07:19.277Z,99.90
2023-03-16T03:10:06.127Z,99.90
2023-03-16T03:12:52.956Z,99.90
2023-03-16T03:15:39.748Z,99.90
2023-03-16T03:18:26.479Z,99.90
2023-03-16T03:21:13.280Z,99.90
2023-03-16T03:24:00.151Z,99.90
2023-03-16T03:26:46.964Z,99.90
2023-03-16T03:29:33.598Z,99.90
2023-03-16T03:32:20.245Z,99.90
2023-03-16T03:35:06.899Z,99.90
2023-03-16T03:37:53.763Z,99.90
2023-03-16T03:40:40.482Z,99.90
2023-03-16T03:43:27.386Z,99.90
2023-03-16T03:46:14.163Z,99.90
2023-03-16T03:49:01.122Z,99.90
2023-03-16T03:51:47.845Z,99.90
2023-03-16T03:54:34.726Z,99.90
2023-03-16T03:57:21.983Z,99.90
2023-03-16T04:00:08.971Z,99.90
2023-03-16T04:02:55.995Z,99.90
2023-03-16T04:05:43.040Z,99.90
2023-03-16T04:08:29.839Z,99.90
2023-03-16T04:11:16.481Z,99.90
2023-03-16T04:14:03.040Z,99.90
2023-03-16T04:16:49.817Z,99.90
2023-03-16T04:19:36.475Z,99.90
2023-03-16T04:22:23.314Z,99.90
2023-03-16T04:25:11.483Z,99.90
2023-03-16T04:27:58.320Z,99.90
2023-03-16T04:30:45.235Z,99.90
2023-03-16T04:33:31.923Z,99.90
2023-03-16T04:36:18.638Z,99.90
2023-03-16T04:39:05.206Z,99.90
2023-03-16T04:41:51.842Z,99.90
2023-03-16T04:44:38.638Z,99.90
2023-03-16T04:47:25.359Z,99.90
2023-03-16T04:50:12.177Z,99.90
2023-03-16T04:52:59.041Z,99.90
2023-03-16T04:55:45.748Z,99.90
2023-03-16T04:58:32.248Z,99.90
2023-03-16T05:01:18.972Z,99.90
2023-03-16T05:04:05.610Z,99.90
2023-03-16T05:06:52.328Z,99.90
2023-03-16T05:09:39.198Z,99.90
2023-03-16T05:12:26.161Z,99.90
2023-03-16T05:15:12.790Z,99.90
2023-03-16T05:17:59.438Z,99.90
2023-03-16T05:20:46.243Z,99.90
2023-03-16T05:23:33.122Z,99.90
2023-03-16T05:26:19.918Z,99.90
2023-03-16T05:29:06.815Z,99.90
2023-03-16T05:31:53.523Z,99.90
2023-03-16T05:34:40.399Z,99.90
2023-03-16T05:37:28.165Z,99.90
2023-03-16T05:40:14.790Z,99.90
2023-03-16T05:43:01.600Z,99.90
2023-03-16T05:45:48.569Z,99.90
2023-03-16T05:48:35.363Z,99.90
2023-03-16T05:51:21.992Z,99.90
2023-03-16T05:54:08.741Z,99.90
2023-03-16T05:56:55.604Z,99.90
2023-03-16T05:59:46.884Z,99.90
2023-03-16T06:02:33.658Z,99.90
2023-03-16T06:05:20.410Z,99.90
2023-03-16T06:08:06.962Z,99.90
2023-03-16T06:10:53.600Z,99.90
2023-03-16T06:13:40.798Z,99.90
2023-03-16T06:16:27.428Z,99.90
2023-03-16T06:19:14.084Z,99.90
2023-03-16T06:22:00.852Z,99.90
2023-03-16T06:24:47.761Z,99.90
2023-03-16T06:27:34.552Z,99.90
2023-03-16T06:30:21.205Z,99.90
2023-03-16T06:33:08.073Z,99.90
2023-03-16T06:35:54.934Z,99.90
2023-03-16T06:38:41.691Z,99.90
2023-03-16T06:41:28.562Z,99.90
2023-03-16T06:44:15.453Z,99.90
2023-03-16T06:47:02.247Z,99.90
2023-03-16T06:49:48.886Z,99.90
2023-03-16T06:52:35.604Z,99.90
2023-03-16T06:55:22.324Z,99.90
2023-03-16T06:58:09.203Z,99.90
2023-03-16T07:00:55.954Z,99.90
2023-03-16T07:03:42.828Z,99.90
2023-03-16T07:06:29.600Z,99.90
2023-03-16T07:09:16.325Z,99.90
2023-03-16T07:12:03.040Z,99.90
2023-03-16T07:14:52.415Z,99.90
2023-03-16T07:17:40.479Z,99.90
2023-03-16T07:20:27.374Z,99.90
2023-03-16T07:23:14.237Z,99.90
2023-03-16T07:26:01.273Z,99.90
2023-03-16T07:28:48.091Z,99.90
2023-03-16T07:31:34.786Z,99.90
2023-03-16T07:34:21.508Z,99.90
2023-03-16T07:37:08.189Z,99.90
2023-03-16T07:39:54.898Z,99.90
2023-03-16T07:42:41.758Z,99.90
2023-03-16T07:45:28.611Z,99.90
2023-03-16T07:48:15.420Z,99.90
2023-03-16T07:51:02.046Z,99.90
2023-03-16T07:53:48.710Z,99.90
2023-03-16T07:56:48.247Z,99.90
2023-03-16T07:59:36.114Z,99.90
2023-03-16T08:02:23.801Z,99.90
2023-03-16T08:05:11.482Z,99.90
2023-03-16T08:07:58.231Z,99.90
2023-03-16T08:10:44.798Z,99.90
2023-03-16T08:13:31.470Z,99.90
2023-03-16T08:16:19.568Z,99.90
2023-03-16T08:19:08.165Z,99.90
2023-03-16T08:22:01.466Z,99.90
2023-03-16T08:24:48.640Z,99.90
2023-03-16T08:27:35.173Z,99.90
2023-03-16T08:30:21.764Z,99.90
2023-03-16T08:33:08.372Z,99.90
2023-03-16T08:35:55.151Z,99.90
2023-03-16T08:38:41.843Z,99.90
2023-03-16T08:41:28.652Z,99.90
2023-03-16T08:44:15.317Z,99.90
2023-03-16T08:47:02.084Z,99.90
2023-03-16T08:49:48.643Z,99.90
2023-03-16T08:52:35.248Z,99.90
2023-03-16T08:55:21.913Z,99.90
2023-03-16T08:58:08.589Z,99.90
2023-03-16T09:00:55.195Z,99.90
2023-03-16T09:03:41.920Z,99.90
2023-03-16T09:06:28.534Z,99.90
2023-03-16T09:09:15.179Z,99.90
2023-03-16T09:12:01.842Z,99.90
2023-03-16T09:14:48.461Z,99.90
2023-03-16T09:17:35.320Z,99.90
2023-03-16T09:20:29.536Z,99.90
2023-03-16T09:23:16.485Z,99.90
2023-03-16T09:26:03.233Z,99.90
2023-03-16T09:28:49.892Z,99.90
2023-03-16T09:31:36.566Z,99.90
2023-03-16T09:34:26.243Z,99.90
2023-03-16T09:37:12.881Z,99.90
2023-03-16T09:40:06.529Z,99.90
2023-03-16T09:42:58.322Z,99.90
2023-03-16T09:45:45.034Z,99.90
2023-03-16T09:48:31.921Z,99.90
2023-03-16T09:51:18.595Z,99.90
2023-03-16T09:54:05.365Z,99.90
2023-03-16T09:56:52.004Z,99.90
2023-03-16T09:59:38.638Z,99.90
2023-03-16T10:02:25.449Z,99.90
2023-03-16T10:05:12.015Z,99.90
2023-03-16T10:07:58.722Z,99.00
2023-03-16T10:10:45.281Z,99.10
2023-03-16T10:13:31.977Z,99.90
2023-03-16T10:16:18.593Z,99.90
2023-03-16T10:19:05.355Z,99.90
2023-03-16T10:21:52.232Z,99.90
2023-03-16T10:24:39.021Z,99.90
2023-03-16T10:27:25.705Z,98.40
2023-03-16T10:30:12.326Z,99.80
2023-03-16T10:32:59.149Z,99.90
2023-03-16T10:35:46.086Z,99.90
2023-03-16T10:38:32.725Z,99.90
2023-03-16T10:41:19.442Z,99.90
2023-03-16T10:44:06.083Z,98.70
2023-03-16T10:46:52.901Z,94.20
2023-03-16T10:49:39.574Z,91.40
2023-03-16T10:52:26.249Z,91.90
2023-03-16T10:55:12.808Z,93.40
2023-03-16T10:57:59.535Z,90.40
2023-03-16T11:00:46.117Z,91.70
2023-03-16T11:03:32.663Z,86.60
2023-03-16T11:06:19.367Z,88.00
2023-03-16T11:09:05.955Z,91.30
2023-03-16T11:11:52.629Z,93.10
2023-03-16T11:14:39.506Z,86.10
2023-03-16T11:17:26.213Z,90.10
2023-03-16T11:20:13.054Z,91.20
2023-03-16T11:22:59.742Z,91.60
2023-03-16T11:25:46.343Z,92.40
2023-03-16T11:28:32.998Z,90.10
2023-03-16T11:31:19.826Z,91.50
2023-03-16T11:34:06.563Z,92.30
2023-03-16T11:36:53.165Z,91.90
2023-03-16T11:39:39.866Z,90.30
2023-03-16T11:42:26.495Z,88.80
2023-03-16T11:45:13.365Z,87.60
2023-03-16T11:48:00.014Z,86.80
2023-03-16T11:50:46.817Z,73.50
2023-03-16T11:53:33.454Z,81.30
2023-03-16T11:56:20.617Z,78.90
2023-03-16T11:59:07.203Z,76.20
2023-03-16T12:02:00.047Z,81.90
2023-03-16T12:04:47.313Z,84.00
2023-03-16T12:07:34.081Z,86.90
2023-03-16T12:10:20.667Z,86.50
2023-03-16T12:13:07.444Z,75.40
2023-03-16T12:15:54.205Z,71.80
2023-03-16T12:18:41.122Z,68.60
2023-03-16T12:21:28.078Z,68.10
2023-03-16T12:24:14.883Z,76.00
2023-03-16T12:27:01.597Z,76.00
2023-03-16T12:29:48.157Z,77.00
2023-03-16T12:32:34.906Z,76.30
2023-03-16T12:35:21.596Z,71.90
2023-03-16T12:38:08.336Z,68.60
2023-03-16T12:40:54.951Z,71.00
2023-03-16T12:43:41.574Z,71.20
2023-03-16T12:46:28.394Z,69.50
2023-03-16T12:49:15.211Z,74.20
2023-03-16T12:52:01.761Z,72.30
2023-03-16T12:54:48.395Z,67.60
2023-03-16T12:57:36.941Z,67.40
2023-03-16T13:00:24.100Z,62.30
2023-03-16T13:03:10.652Z,61.30
2023-03-16T13:05:57.333Z,62.90
2023-03-16T13:08:43.998Z,62.50
2023-03-16T13:11:30.650Z,64.80
2023-03-16T13:14:17.281Z,61.50
2023-03-16T13:17:04.038Z,58.00
2023-03-16T13:19:50.692Z,57.90
2023-03-16T13:22:37.305Z,55.20
2023-03-16T13:25:24.013Z,59.40
2023-03-16T13:28:10.796Z,60.60
2023-03-16T13:30:57.490Z,61.50
2023-03-16T13:33:44.213Z,62.00
2023-03-16T13:36:30.881Z,62.10
2023-03-16T13:39:17.594Z,58.20
2023-03-16T13:42:04.486Z,61.60
2023-03-16T13:44:51.112Z,62.10
2023-03-16T13:47:37.892Z,59.50
2023-03-16T13:50:24.508Z,57.30
2023-03-16T13:53:11.147Z,58.30
2023-03-16T13:55:57.739Z,57.40
2023-03-16T13:58:44.448Z,54.60
2023-03-16T14:01:32.387Z,52.50
2023-03-16T14:04:19.092Z,55.90
2023-03-16T14:07:05.746Z,56.50
2023-03-16T14:09:52.460Z,57.40
2023-03-16T14:12:39.090Z,58.80
2023-03-16T14:15:25.744Z,56.50
2023-03-16T14:18:12.386Z,58.10
2023-03-16T14:20:59.177Z,57.60
2023-03-16T14:23:46.050Z,53.40
2023-03-16T14:26:32.930Z,54.30
2023-03-16T14:29:19.621Z,58.20
2023-03-16T14:32:06.299Z,59.40
2023-03-16T14:34:52.975Z,56.10
2023-03-16T14:37:39.645Z,55.40
2023-03-16T14:40:26.303Z,54.90
2023-03-16T14:43:12.892Z,55.90
2023-03-16T14:45:59.773Z,50.90
2023-03-16T14:48:46.536Z,51.80
2023-03-16T14:51:33.404Z,53.20
2023-03-16T14:54:20.103Z,53.50
2023-03-16T14:57:06.858Z,53.20
2023-03-16T14:59:53.571Z,53.60
2023-03-16T15:02:40.281Z,54.00
2023-03-16T15:05:27.353Z,52.60
2023-03-16T15:08:14.083Z,51.80
2023-03-16T15:11:00.703Z,53.10
2023-03-16T15:13:47.555Z,52.40
2023-03-16T15:16:34.272Z,53.20
2023-03-16T15:19:20.934Z,52.60
2023-03-16T15:22:07.625Z,55.40
2023-03-16T15:24:54.470Z,55.00
2023-03-16T15:27:41.114Z,54.00
2023-03-16T15:30:27.838Z,55.30
2023-03-16T15:33:14.536Z,53.40
2023-03-16T15:36:01.213Z,52.70
2023-03-16T15:38:47.919Z,51.00
2023-03-16T15:41:46.771Z,52.90
2023-03-16T15:44:34.461Z,54.80
2023-03-16T15:47:21.422Z,54.40
2023-03-16T15:50:08.132Z,53.30
2023-03-16T15:52:54.693Z,55.20
2023-03-16T15:55:41.332Z,55.20
2023-03-16T15:58:28.011Z,54.80
2023-03-16T16:01:14.769Z,54.30
2023-03-16T16:04:01.531Z,55.40
2023-03-16T16:06:48.253Z,54.30
2023-03-16T16:09:35.099Z,55.50
2023-03-16T16:12:21.806Z,56.10
2023-03-16T16:15:08.521Z,56.50
2023-03-16T16:18:19.399Z,53.90
2023-03-16T16:21:01.925Z,50.10
2023-03-16T16:23:48.591Z,50.80
2023-03-16T16:26:49.094Z,52.20
2023-03-16T16:29:39.177Z,51.70
2023-03-16T16:32:26.086Z,53.60
2023-03-16T16:35:12.784Z,52.50
2023-03-16T16:37:59.263Z,51.80
2023-03-16T16:40:45.869Z,52.40
2023-03-16T16:43:33.617Z,52.60
2023-03-16T16:46:27.367Z,52.60
2023-03-16T16:49:20.284Z,53.50
2023-03-16T16:52:06.944Z,54.60
2023-03-16T16:54:53.805Z,54.90
2023-03-16T16:57:40.614Z,52.70
2023-03-16T17:00:27.205Z,52.90
2023-03-16T17:03:13.893Z,51.60
2023-03-16T17:06:00.610Z,51.30
2023-03-16T17:08:47.247Z,51.00
2023-03-16T17:11:33.928Z,49.70
2023-03-16T17:14:20.609Z,49.70
2023-03-16T17:17:07.460Z,51.20
2023-03-16T17:19:54.134Z,52.40
2023-03-16T17:22:40.765Z,53.40
2023-03-16T17:25:27.931Z,53.10
2023-03-16T17:28:16.816Z,54.50
2023-03-16T17:31:03.840Z,55.40
2023-03-16T17:33:50.605Z,57.10
2023-03-16T17:36:37.491Z,58.50
2023-03-16T17:39:24.210Z,59.20
2023-03-16T17:42:10.946Z,59.90
2023-03-16T17:44:57.650Z,60.10
2023-03-16T17:47:44.306Z,60.90
2023-03-16T17:50:31.211Z,62.50
2023-03-16T17:53:18.380Z,61.70
2023-03-16T17:56:05.175Z,63.10
2023-03-16T17:58:52.054Z,64.60
2023-03-16T18:01:38.685Z,65.30
2023-03-16T18:04:25.574Z,64.90
2023-03-16T18:07:12.299Z,65.40
2023-03-16T18:09:58.940Z,66.00
2023-03-16T18:12:45.575Z,65.80
2023-03-16T18:15:33.250Z,65.60
2023-03-16T18:18:19.979Z,66.70
2023-03-16T18:21:06.620Z,67.40
2023-03-16T18:23:53.334Z,68.00
2023-03-16T18:26:40.212Z,68.30
2023-03-16T18:29:27.009Z,68.60
2023-03-16T18:32:13.514Z,69.00
2023-03-16T18:35:02.197Z,69.70
2023-03-16T18:37:50.144Z,68.40
2023-03-16T18:40:36.855Z,69.10
2023-03-16T18:43:25.483Z,69.90
2023-03-16T18:46:13.465Z,70.20
2023-03-16T18:49:00.142Z,70.50
2023-03-16T18:51:46.853Z,69.90
2023-03-16T18:54:33.738Z,70.60
2023-03-16T18:57:20.550Z,71.60
2023-03-16T19:00:07.174Z,68.90
2023-03-16T19:02:53.977Z,71.50
2023-03-16T19:05:40.535Z,73.40
2023-03-16T19:08:27.259Z,73.40
2023-03-16T19:11:13.834Z,73.50
2023-03-16T19:14:00.693Z,72.60
2023-03-16T19:16:47.429Z,74.10
2023-03-16T19:19:34.169Z,75.70
2023-03-16T19:22:20.700Z,74.10
2023-03-16T19:25:07.652Z,74.60
2023-03-16T19:27:54.297Z,75.30
2023-03-16T19:30:41.077Z,75.20
2023-03-16T19:33:27.795Z,76.50
2023-03-16T19:36:14.553Z,77.20
2023-03-16T19:39:01.177Z,77.00
2023-03-16T19:41:47.836Z,77.70
2023-03-16T19:44:34.541Z,77.40
2023-03-16T19:47:21.271Z,77.00
2023-03-16T19:50:14.475Z,78.00
2023-03-16T19:53:01.094Z,78.60
2023-03-16T19:55:47.734Z,78.60
2023-03-16T19:58:34.399Z,78.60
2023-03-16T20:01:21.086Z,79.60
2023-03-16T20:04:07.733Z,81.50
2023-03-16T20:06:54.524Z,80.60
2023-03-16T20:09:41.065Z,78.20
2023-03-16T20:12:27.670Z,78.00
2023-03-16T20:15:14.214Z,79.70
2023-03-16T20:18:01.029Z,81.20
2023-03-16T20:20:48.813Z,82.40
2023-03-16T20:23:35.651Z,81.90
2023-03-16T20:26:22.235Z,81.10
2023-03-16T20:29:09.374Z,82.30
2023-03-16T20:31:56.097Z,82.50
2023-03-16T20:34:42.777Z,83.90
2023-03-16T20:37:29.309Z,82.70
2023-03-16T20:40:15.824Z,83.50
2023-03-16T20:43:02.371Z,84.40
2023-03-16T20:45:49.158Z,83.90
2023-03-16T20:48:35.811Z,84.80
2023-03-16T20:51:22.536Z,84.20
2023-03-16T20:54:09.187Z,85.70
2023-03-16T20:56:55.897Z,87.00
2023-03-16T20:59:42.538Z,88.00
2023-03-16T21:02:29.251Z,88.10
2023-03-16T21:05:15.967Z,88.80
2023-03-16T21:08:02.680Z,89.50
2023-03-16T21:10:49.335Z,88.70
2023-03-16T21:13:36.001Z,88.70
2023-03-16T21:16:22.676Z,89.40
2023-03-16T21:19:09.293Z,89.70
2023-03-16T21:21:55.896Z,86.30
2023-03-16T21:24:42.542Z,87.60
2023-03-16T21:27:29.336Z,88.70
2023-03-16T21:30:15.892Z,89.80
2023-03-16T21:33:03.137Z,90.30
2023-03-16T21:35:49.879Z,91.30
2023-03-16T21:38:36.587Z,91.70
2023-03-16T21:41:23.269Z,92.30
2023-03-16T21:44:10.060Z,92.40
2023-03-16T21:46:56.845Z,92.40
2023-03-16T21:49:43.608Z,92.30
2023-03-16T21:52:30.530Z,92.90
2023-03-16T21:55:23.241Z,93.50
2023-03-16T21:58:10.530Z,95.10
2023-03-16T22:00:57.102Z,94.30
2023-03-16T22:03:50.861Z,94.50
2023-03-16T22:06:38.210Z,96.10
2023-03-16T22:09:24.889Z,96.30
2023-03-16T22:12:18.390Z,96.50
2023-03-16T22:15:06.859Z,97.00
2023-03-16T22:17:53.495Z,98.10
2023-03-16T22:20:40.207Z,98.00
2023-03-16T22:23:26.778Z,97.90
2023-03-16T22:26:14.453Z,98.60
2023-03-16T22:29:01.167Z,98.90
2023-03-16T22:31:47.953Z,99.20
2023-03-16T22:34:34.863Z,97.70
2023-03-16T22:37:21.809Z,99.00
2023-03-16T22:40:08.611Z,98.30
2023-03-16T22:42:55.134Z,97.20
2023-03-16T22:45:42.793Z,97.70
2023-03-16T22:48:29.491Z,97.20
2023-03-16T22:51:16.216Z,97.90
2023-03-16T22:54:03.176Z,98.70
2023-03-16T22:56:49.895Z,98.90
2023-03-16T22:59:36.595Z,99.90
2023-03-16T23:02:23.249Z,99.90
2023-03-16T23:05:10.144Z,99.60
2023-03-16T23:07:56.695Z,99.90
2023-03-16T23:10:43.495Z,99.90
2023-03-16T23:13:30.217Z,99.90
2023-03-16T23:16:16.967Z,99.30
2023-03-16T23:19:15.309Z,99.30
2023-03-16T23:22:08.831Z,99.30
2023-03-16T23:24:55.576Z,99.90
2023-03-16T23:27:42.150Z,99.90
2023-03-16T23:30:29.097Z,99.90
2023-03-16T23:33:15.868Z,99.90
2023-03-16T23:36:02.492Z,99.90
2023-03-16T23:38:49.102Z,99.90
2023-03-16T23:41:36.817Z,99.90
2023-03-16T23:44:23.509Z,99.90
2023-03-16T23:47:11.743Z,99.90
2023-03-16T23:49:58.296Z,99.90
2023-03-16T23:52:44.935Z,99.90
2023-03-16T23:55:31.713Z,99.90
2023-03-16T23:58:18.260Z,99.90
